createdAt,value
2017-04-06T00:01:26.954Z,76.557
2017-04-06T00:04:21.854Z,77.557
2017-04-06T00:07:18.492Z,79.174
2017-04-06T00:10:11.719Z,75.112
2017-04-06T00:13:06.485Z,78.096
2017-04-06T00:16:03.007Z,76.883
2017-04-06T00:18:56.316Z,77.255
2017-04-06T00:21:52.641Z,77.932
2017-04-06T00:24:45.824Z,77.509
2017-04-06T00:27:40.528Z,75.001
2017-04-06T00:30:35.348Z,76.475
2017-04-06T00:33:30.200Z,79.256
2017-04-06T00:36:26.806Z,76.333
2017-04-06T00:39:19.965Z,78.964
2017-04-06T00:42:14.952Z,79.204
2017-04-06T00:45:09.733Z,80.061
2017-04-06T00:48:04.532Z,77.351
2017-04-06T00:50:59.282Z,80.297
2017-04-06T00:53:54.091Z,76.628
2017-04-06T00:56:50.727Z,79.843
2017-04-06T00:59:43.857Z,78.900
2017-04-06T01:02:38.747Z,78.090
2017-04-06T01:05:33.600Z,78.027
2017-04-06T01:08:28.376Z,79.157
2017-04-06T01:11:25.037Z,79.375
2017-04-06T01:14:18.130Z,78.927
2017-04-06T01:17:13.033Z,79.244
2017-04-06T01:20:07.818Z,79.161
2017-04-06T01:23:04.353Z,77.170
2017-04-06T01:25:57.532Z,80.498
2017-04-06T01:28:52.249Z,81.555
2017-04-06T01:31:46.924Z,78.251
2017-04-06T01:34:41.764Z,80.702
2017-04-06T01:37:36.378Z,81.792
2017-04-06T01:40:31.055Z,81.476
2017-04-06T01:43:25.662Z,81.385
2017-04-06T01:46:22.071Z,81.895
2017-04-06T01:49:15.027Z,82.832
2017-04-06T01:52:09.685Z,83.208
2017-04-06T01:55:04.602Z,83.394
2017-04-06T01:57:59.316Z,83.950
2017-04-06T02:00:53.998Z,82.989
2017-04-06T02:03:48.653Z,83.753
2017-04-06T02:06:43.374Z,84.656
2017-04-06T02:09:37.894Z,83.691
2017-04-06T02:12:32.488Z,85.148
2017-04-06T02:15:28.793Z,81.892
2017-04-06T02:18:21.691Z,83.499
2017-04-06T02:21:16.381Z,82.437
2017-04-06T02:24:10.933Z,85.142
2017-04-06T02:27:05.492Z,85.787
2017-04-06T02:30:00.151Z,86.826
2017-04-06T02:32:54.690Z,86.860
2017-04-06T02:35:49.307Z,85.232
2017-04-06T02:38:45.512Z,86.800
2017-04-06T02:41:38.435Z,87.432
2017-04-06T02:44:34.654Z,88.180
2017-04-06T02:47:27.595Z,83.521
2017-04-06T02:50:23.996Z,87.314
2017-04-06T02:53:19.040Z,86.121
2017-04-06T02:56:12.014Z,84.653
2017-04-06T02:59:06.617Z,86.787
2017-04-06T03:02:01.181Z,87.795
2017-04-06T03:04:55.863Z,87.565
2017-04-06T03:07:50.497Z,84.131
2017-04-06T03:10:45.772Z,86.504
2017-04-06T03:13:39.822Z,85.804
2017-04-06T03:16:36.234Z,84.780
2017-04-06T03:19:29.006Z,86.288
2017-04-06T03:22:23.613Z,85.741
2017-04-06T03:25:19.906Z,86.526
2017-04-06T03:28:14.557Z,86.002
2017-04-06T03:31:07.547Z,86.119
2017-04-06T03:34:03.844Z,86.709
2017-04-06T03:36:58.449Z,85.262
2017-04-06T03:39:51.299Z,86.023
2017-04-06T03:42:45.883Z,85.685
2017-04-06T03:45:42.318Z,84.634
2017-04-06T03:48:35.107Z,85.480
2017-04-06T03:51:29.797Z,84.322
2017-04-06T03:54:24.439Z,83.944
2017-04-06T03:57:19.106Z,84.547
2017-04-06T04:00:13.749Z,81.572
2017-04-06T04:03:08.313Z,83.269
2017-04-06T04:06:03.030Z,83.372
2017-04-06T04:08:59.347Z,81.988
2017-04-06T04:11:54.094Z,82.322
2017-04-06T04:14:46.851Z,81.316
2017-04-06T04:17:41.407Z,82.316
2017-04-06T04:20:37.782Z,82.374
2017-04-06T04:23:30.973Z,80.830
2017-04-06T04:26:25.599Z,81.510
2017-04-06T04:29:20.137Z,80.580
2017-04-06T04:32:16.541Z,81.851
2017-04-06T04:35:11.170Z,80.091
2017-04-06T04:38:04.103Z,81.662
2017-04-06T04:40:58.769Z,81.533
2017-04-06T04:43:53.347Z,81.679
2017-04-06T04:46:48.044Z,81.888
2017-04-06T04:49:42.554Z,82.237
2017-04-06T04:52:38.979Z,82.402
2017-04-06T04:55:33.491Z,82.971
2017-04-06T04:58:28.150Z,81.085
2017-04-06T05:01:21.206Z,82.458
2017-04-06T05:04:15.867Z,82.784
2017-04-06T05:07:10.579Z,82.452
2017-04-06T05:10:06.893Z,80.864
2017-04-06T05:12:59.974Z,81.771
2017-04-06T05:15:54.601Z,80.457
2017-04-06T05:18:49.819Z,81.253
2017-04-06T05:21:44.458Z,81.051
2017-04-06T05:24:39.120Z,79.824
2017-04-06T05:27:33.805Z,81.483
2017-04-06T05:33:24.932Z,79.063
2017-04-06T05:36:18.049Z,77.824
2017-04-06T05:39:12.786Z,75.921
2017-04-06T05:42:07.668Z,73.740
2017-04-06T05:45:04.353Z,72.541
2017-04-06T05:47:59.334Z,70.671
2017-04-06T05:50:54.113Z,70.977
2017-04-06T05:53:47.156Z,71.840
2017-04-06T05:56:41.920Z,72.742
2017-04-06T05:59:36.838Z,71.625
2017-04-06T06:02:31.696Z,69.821
2017-04-06T06:05:28.341Z,70.587
2017-04-06T06:08:23.041Z,70.695
2017-04-06T06:11:17.971Z,71.131
2017-04-06T06:14:11.237Z,70.143
2017-04-06T06:17:06.310Z,64.958
2017-04-06T06:20:01.365Z,62.875
2017-04-06T06:22:56.507Z,62.201
2017-04-06T06:25:51.494Z,58.599
2017-04-06T06:28:46.999Z,52.360
2017-04-06T06:31:42.489Z,44.470
2017-04-06T06:34:38.931Z,40.986
2017-04-06T06:37:33.744Z,42.704
2017-04-06T06:40:29.390Z,42.583
2017-04-06T06:43:24.956Z,39.646
2017-04-06T06:46:20.592Z,32.955
2017-04-06T06:49:16.032Z,28.083
2017-04-06T06:52:11.624Z,35.501
2017-04-06T06:55:07.193Z,26.493
2017-04-06T06:58:02.889Z,30.651
2017-04-06T07:00:58.483Z,25.330
2017-04-06T07:03:54.263Z,25.480
2017-04-06T07:06:49.691Z,38.396
2017-04-06T07:09:45.050Z,34.365
2017-04-06T07:12:40.561Z,35.704
2017-04-06T07:15:36.238Z,36.625
2017-04-06T07:18:31.809Z,42.687
2017-04-06T07:21:27.346Z,35.031
2017-04-06T07:24:23.075Z,33.857
2017-04-06T07:27:18.731Z,35.840
2017-04-06T07:30:14.238Z,36.390
2017-04-06T07:33:09.972Z,36.353
2017-04-06T07:36:05.477Z,35.932
2017-04-06T07:39:01.260Z,37.906
2017-04-06T07:41:57.182Z,37.310
2017-04-06T07:44:53.089Z,34.354
2017-04-06T07:47:49.037Z,31.724
2017-04-06T07:50:45.014Z,32.805
2017-04-06T07:53:40.809Z,29.275
2017-04-06T07:56:36.871Z,35.195
2017-04-06T07:59:32.954Z,29.639
2017-04-06T08:02:28.952Z,30.138
2017-04-06T08:05:24.798Z,34.996
2017-04-06T08:08:20.882Z,28.256
2017-04-06T08:11:16.951Z,27.887
2017-04-06T08:14:12.873Z,27.714
2017-04-06T08:17:08.861Z,26.504
2017-04-06T08:20:05.051Z,26.405
2017-04-06T08:23:01.291Z,27.870
2017-04-06T08:25:57.544Z,26.809
2017-04-06T08:28:55.296Z,29.170
2017-04-06T08:31:49.766Z,26.189
2017-04-06T08:34:45.847Z,28.629
2017-04-06T08:37:41.913Z,29.473
2017-04-06T08:40:37.910Z,25.377
2017-04-06T08:43:34.109Z,26.513
2017-04-06T08:46:30.126Z,25.589
2017-04-06T08:49:26.370Z,27.851
2017-04-06T08:52:22.420Z,26.960
2017-04-06T08:55:18.281Z,28.973
2017-04-06T08:58:13.907Z,27.921
2017-04-06T09:01:09.982Z,27.770
2017-04-06T09:04:06.279Z,27.655
2017-04-06T09:07:02.547Z,28.324
2017-04-06T09:09:58.889Z,26.987
2017-04-06T09:12:55.347Z,23.571
2017-04-06T09:15:51.758Z,25.494
2017-04-06T09:18:48.048Z,25.792
2017-04-06T09:21:44.330Z,23.555
2017-04-06T09:24:40.571Z,21.955
2017-04-06T09:27:36.748Z,23.474
2017-04-06T09:30:33.083Z,18.833
2017-04-06T09:33:28.543Z,16.636
2017-04-06T09:36:23.757Z,19.598
2017-04-06T09:39:20.414Z,18.841
2017-04-06T09:42:14.013Z,16.613
2017-04-06T09:45:09.155Z,16.967
2017-04-06T09:48:04.219Z,16.366
2017-04-06T09:50:59.466Z,17.119
2017-04-06T09:53:53.509Z,18.243
2017-04-06T09:56:47.779Z,22.585
2017-04-06T09:59:42.352Z,20.806
2017-04-06T10:02:37.000Z,19.984
2017-04-06T10:05:31.308Z,19.226
2017-04-06T10:08:25.478Z,16.744
2017-04-06T10:11:20.671Z,18.203
2017-04-06T10:14:13.577Z,21.629
2017-04-06T10:17:08.677Z,20.058
2017-04-06T10:20:03.005Z,18.752
2017-04-06T10:22:56.835Z,21.128
2017-04-06T10:25:50.436Z,25.350
2017-04-06T10:28:44.157Z,29.190
2017-04-06T10:31:39.661Z,32.879
2017-04-06T10:34:33.564Z,32.593
2017-04-06T10:37:25.596Z,33.629
2017-04-06T10:40:20.317Z,35.171
2017-04-06T10:43:15.303Z,37.314
2017-04-06T10:46:10.380Z,36.825
2017-04-06T10:49:05.581Z,37.685
2017-04-06T10:52:00.661Z,38.299
2017-04-06T10:54:55.576Z,39.560
2017-04-06T10:57:50.588Z,38.699
2017-04-06T11:00:45.369Z,41.323
2017-04-06T11:03:40.044Z,39.422
2017-04-06T11:06:36.579Z,39.714
2017-04-06T11:09:28.779Z,40.669
2017-04-06T11:12:23.159Z,40.105
2017-04-06T11:15:16.925Z,39.312
2017-04-06T11:18:11.304Z,40.852
2017-04-06T11:21:06.214Z,40.458
2017-04-06T11:24:01.080Z,41.127
2017-04-06T11:26:56.015Z,41.812
2017-04-06T11:29:50.845Z,42.708
2017-04-06T11:32:45.825Z,41.563
2017-04-06T11:35:40.754Z,42.784
2017-04-06T11:38:37.594Z,40.979
2017-04-06T11:41:31.073Z,41.593
2017-04-06T11:44:26.208Z,38.876
2017-04-06T11:47:21.490Z,37.990
2017-04-06T11:50:16.477Z,38.329
2017-04-06T11:53:11.699Z,39.294
2017-04-06T11:56:06.885Z,39.279
2017-04-06T11:59:02.168Z,39.533
2017-04-06T12:01:57.335Z,40.161
2017-04-06T12:04:52.544Z,39.143
2017-04-06T12:07:47.748Z,39.676
2017-04-06T12:10:42.992Z,40.067
2017-04-06T12:13:38.133Z,39.337
2017-04-06T12:16:33.315Z,38.979
2017-04-06T12:19:28.633Z,39.622
2017-04-06T12:22:24.005Z,39.482
2017-04-06T12:25:19.535Z,39.167
2017-04-06T12:28:14.940Z,38.405
2017-04-06T12:31:10.293Z,37.727
2017-04-06T12:34:05.631Z,37.789
2017-04-06T12:37:01.080Z,37.664
2017-04-06T12:39:56.425Z,38.038
2017-04-06T12:42:51.779Z,37.738
2017-04-06T12:45:47.236Z,37.031
2017-04-06T12:48:42.473Z,37.140
2017-04-06T12:51:37.879Z,36.786
2017-04-06T12:54:33.217Z,35.704
2017-04-06T12:57:28.571Z,36.538
2017-04-06T13:00:23.925Z,36.265
2017-04-06T13:03:19.419Z,37.111
2017-04-06T13:06:14.725Z,36.730
2017-04-06T13:09:10.038Z,37.550
2017-04-06T13:12:07.003Z,36.705
2017-04-06T13:15:00.641Z,36.503
2017-04-06T13:17:55.898Z,36.999
2017-04-06T13:20:51.064Z,37.714
2017-04-06T13:23:46.289Z,38.309
2017-04-06T13:26:41.575Z,38.152
2017-04-06T13:29:36.826Z,38.911
2017-04-06T13:32:32.057Z,38.774
2017-04-06T13:35:27.211Z,38.615
2017-04-06T13:38:22.449Z,38.741
2017-04-06T13:41:17.693Z,38.233
2017-04-06T13:44:13.166Z,38.454
2017-04-06T13:47:08.236Z,39.038
2017-04-06T13:50:05.265Z,38.972
2017-04-06T13:52:58.697Z,38.863
2017-04-06T13:55:53.952Z,38.541
2017-04-06T13:58:49.127Z,39.393
2017-04-06T14:01:44.437Z,39.568
2017-04-06T14:04:39.589Z,39.815
2017-04-06T14:07:34.691Z,40.022
2017-04-06T14:10:29.881Z,40.189
2017-04-06T14:13:25.107Z,39.851
2017-04-06T14:16:20.266Z,39.384
2017-04-06T14:19:15.526Z,39.832
2017-04-06T14:22:10.729Z,40.382
2017-04-06T14:25:06.025Z,41.046
2017-04-06T14:28:01.270Z,41.222
2017-04-06T14:30:56.459Z,40.353
2017-04-06T14:33:51.622Z,41.034
2017-04-06T14:36:46.805Z,41.059
2017-04-06T14:39:41.983Z,41.512
2017-04-06T14:42:37.217Z,41.493
2017-04-06T14:45:32.436Z,41.475
2017-04-06T14:48:28.173Z,41.816
2017-04-06T14:51:23.414Z,41.847
2017-04-06T14:54:18.690Z,42.486
2017-04-06T14:57:13.995Z,40.988
2017-04-06T15:00:09.243Z,41.165
2017-04-06T15:03:04.492Z,40.625
2017-04-06T15:05:59.764Z,40.950
2017-04-06T15:08:55.004Z,40.767
2017-04-06T15:11:50.419Z,40.970
2017-04-06T15:14:45.554Z,40.854
2017-04-06T15:17:40.756Z,40.930
2017-04-06T15:20:36.120Z,40.612
2017-04-06T15:23:31.370Z,39.372
2017-04-06T15:26:26.499Z,39.956
2017-04-06T15:29:21.808Z,39.749
2017-04-06T15:32:17.157Z,40.195
2017-04-06T15:35:14.191Z,40.001
2017-04-06T15:38:07.648Z,39.639
2017-04-06T15:41:02.909Z,40.668
2017-04-06T15:43:58.190Z,40.267
2017-04-06T15:46:53.511Z,39.877
2017-04-06T15:49:48.739Z,40.296
2017-04-06T15:52:44.024Z,40.305
2017-04-06T15:55:39.250Z,40.480
2017-04-06T15:58:34.566Z,41.267
2017-04-06T16:01:29.760Z,41.652
2017-04-06T16:04:25.037Z,42.007
2017-04-06T16:07:20.276Z,42.450
2017-04-06T16:10:15.516Z,42.359
2017-04-06T16:13:10.781Z,44.741
2017-04-06T16:16:05.978Z,44.227
2017-04-06T16:19:01.188Z,44.008
2017-04-06T16:21:56.387Z,43.786
2017-04-06T16:24:51.497Z,43.887
2017-04-06T16:27:46.560Z,43.666
2017-04-06T16:30:41.682Z,44.394
2017-04-06T16:33:36.781Z,44.580
2017-04-06T16:36:31.982Z,46.015
2017-04-06T16:39:27.091Z,46.440
2017-04-06T16:42:22.320Z,44.600
2017-04-06T16:45:17.581Z,47.266
2017-04-06T16:48:12.684Z,46.696
2017-04-06T16:51:08.032Z,46.016
2017-04-06T16:54:03.181Z,46.691
2017-04-06T16:56:58.929Z,46.881
2017-04-06T16:59:54.109Z,45.382
2017-04-06T17:02:49.301Z,45.875
2017-04-06T17:05:44.404Z,47.345
2017-04-06T17:08:41.279Z,48.271
2017-04-06T17:11:34.485Z,47.338
2017-04-06T17:14:29.530Z,46.226
2017-04-06T17:17:24.540Z,48.369
2017-04-06T17:20:19.774Z,47.423
2017-04-06T17:23:14.814Z,47.553
2017-04-06T17:26:11.780Z,47.125
2017-04-06T17:29:05.118Z,47.818
2017-04-06T17:32:00.360Z,48.659
2017-04-06T17:34:57.131Z,49.665
2017-04-06T17:37:50.743Z,48.384
2017-04-06T17:40:45.901Z,49.441
2017-04-06T17:43:41.057Z,49.459
2017-04-06T17:46:36.273Z,50.734
2017-04-06T17:49:31.475Z,48.781
2017-04-06T17:52:26.617Z,51.973
2017-04-06T17:55:21.805Z,50.973
2017-04-06T17:58:16.945Z,51.520
2017-04-06T18:01:12.185Z,52.693
2017-04-06T18:04:08.745Z,51.145
2017-04-06T18:07:02.411Z,52.905
2017-04-06T18:09:57.398Z,52.930
2017-04-06T18:12:52.524Z,50.927
2017-04-06T18:15:47.621Z,52.197
2017-04-06T18:18:42.723Z,51.156
2017-04-06T18:21:37.852Z,54.051
2017-04-06T18:24:33.048Z,52.936
2017-04-06T18:27:27.960Z,55.834
2017-04-06T18:30:23.087Z,53.862
2017-04-06T18:33:18.133Z,55.562
2017-04-06T18:36:13.211Z,53.811
2017-04-06T18:39:08.200Z,55.312
2017-04-06T18:42:03.238Z,54.848
2017-04-06T18:44:58.231Z,54.808
2017-04-06T18:47:53.234Z,54.364
2017-04-06T18:50:48.287Z,53.971
2017-04-06T18:53:43.296Z,56.079
2017-04-06T18:56:38.263Z,54.744
2017-04-06T18:59:33.273Z,56.163
2017-04-06T19:02:28.222Z,56.858
2017-04-06T19:05:23.368Z,55.516
2017-04-06T19:08:18.244Z,57.335
2017-04-06T19:11:13.289Z,58.120
2017-04-06T19:14:10.024Z,57.492
2017-04-06T19:17:03.244Z,56.733
2017-04-06T19:19:58.198Z,59.122
2017-04-06T19:22:53.131Z,57.454
2017-04-06T19:25:48.127Z,59.515
2017-04-06T19:28:43.171Z,58.160
2017-04-06T19:31:38.192Z,57.514
2017-04-06T19:34:33.216Z,56.842
2017-04-06T19:37:29.927Z,60.209
2017-04-06T19:40:23.110Z,60.216
2017-04-06T19:43:18.038Z,59.153
2017-04-06T19:46:13.094Z,57.803
2017-04-06T19:49:08.033Z,58.882
2017-04-06T19:52:03.001Z,61.625
2017-04-06T19:54:57.944Z,61.232
2017-04-06T19:57:52.878Z,58.902
2017-04-06T20:00:49.488Z,60.777
2017-04-06T20:03:42.728Z,62.318
2017-04-06T20:06:37.619Z,62.004
2017-04-06T20:09:32.601Z,61.128
2017-04-06T20:12:29.202Z,63.372
2017-04-06T20:15:22.419Z,58.626
2017-04-06T20:18:17.374Z,60.253
2017-04-06T20:21:12.222Z,63.880
2017-04-06T20:24:07.196Z,62.285
2017-04-06T20:27:02.019Z,61.916
2017-04-06T20:29:56.936Z,63.513
2017-04-06T20:32:51.811Z,60.820
2017-04-06T20:35:46.774Z,63.948
2017-04-06T20:38:41.705Z,63.225
2017-04-06T20:41:38.270Z,61.047
2017-04-06T20:44:31.578Z,63.739
2017-04-06T20:47:26.515Z,64.229
2017-04-06T20:50:21.418Z,65.632
2017-04-06T20:53:16.229Z,62.234
2017-04-06T20:56:11.158Z,66.507
2017-04-06T20:59:06.188Z,66.500
2017-04-06T21:02:01.442Z,64.299
2017-04-06T21:04:56.211Z,63.595
2017-04-06T21:07:51.005Z,65.194
2017-04-06T21:10:45.893Z,64.910
2017-04-06T21:13:40.765Z,65.135
2017-04-06T21:16:35.633Z,64.053
2017-04-06T21:19:30.389Z,62.592
2017-04-06T21:22:25.334Z,62.880
2017-04-06T21:25:20.158Z,66.916
2017-04-06T21:28:15.101Z,67.306
2017-04-06T21:31:09.925Z,66.120
2017-04-06T21:34:04.722Z,66.988
2017-04-06T21:36:59.514Z,67.953
2017-04-06T21:39:54.313Z,66.329
2017-04-06T21:42:49.096Z,63.606
2017-04-06T21:45:43.923Z,64.031
2017-04-06T21:48:38.707Z,67.470
2017-04-06T21:51:33.645Z,65.776
2017-04-06T21:54:28.394Z,67.761
2017-04-06T21:57:25.392Z,66.564
2017-04-06T22:00:18.276Z,67.568
2017-04-06T22:03:13.014Z,66.955
2017-04-06T22:06:09.560Z,67.770
2017-04-06T22:09:04.514Z,65.804
2017-04-06T22:11:57.571Z,65.910
2017-04-06T22:14:52.361Z,68.723
2017-04-06T22:17:47.113Z,68.648
2017-04-06T22:20:41.959Z,67.789
2017-04-06T22:23:36.784Z,66.280
2017-04-06T22:26:33.393Z,68.833
2017-04-06T22:29:26.275Z,68.105
2017-04-06T22:32:21.051Z,68.364
2017-04-06T22:35:15.888Z,68.711
2017-04-06T22:38:12.493Z,70.477
2017-04-06T22:41:05.645Z,67.731
2017-04-06T22:44:00.412Z,67.917
2017-04-06T22:46:55.164Z,70.498
2017-04-06T22:49:49.856Z,70.049
2017-04-06T22:52:44.687Z,66.798
2017-04-06T22:55:39.482Z,70.770
2017-04-06T22:58:34.320Z,70.797
2017-04-06T23:01:29.105Z,69.800
2017-04-06T23:04:25.700Z,68.504
2017-04-06T23:07:20.495Z,68.971
2017-04-06T23:10:13.629Z,70.500
2017-04-06T23:13:10.198Z,70.288
2017-04-06T23:16:03.338Z,71.485
2017-04-06T23:18:58.179Z,67.463
2017-04-06T23:21:52.924Z,69.914
2017-04-06T23:24:47.707Z,74.517
2017-04-06T23:27:42.524Z,71.965
2017-04-06T23:30:37.323Z,73.238
2017-04-06T23:33:31.970Z,70.902
2017-04-06T23:36:26.873Z,72.836
2017-04-06T23:39:21.592Z,72.211
2017-04-06T23:42:16.351Z,73.398
2017-04-06T23:45:11.245Z,71.395
2017-04-06T23:48:06.027Z,72.801
2017-04-06T23:51:00.712Z,73.134
2017-04-06T23:53:55.570Z,74.493
2017-04-06T23:56:50.256Z,78.465
2017-04-06T23:59:44.929Z,78.916
